createdAt,value
2023-02-19T00:00:30.674Z,1.12
2023-02-19T00:01:01.479Z,1.28
2023-02-19T00:01:33.536Z,1.44
2023-02-19T00:02:05.505Z,1.28
2023-02-19T00:02:37.835Z,1.28
2023-02-19T00:03:11.356Z,1.28
2023-02-19T00:03:34.886Z,1.28
2023-02-19T00:03:57.918Z,1.28
2023-02-19T00:04:30.042Z,1.28
2023-02-19T00:05:03.448Z,1.12
2023-02-19T00:05:33.472Z,.88
2023-02-19T00:06:05.584Z,.88
2023-02-19T00:06:37.491Z,.48
2023-02-19T00:07:09.494Z,.48
2023-02-19T00:07:34.796Z,.48
2023-02-19T00:07:57.569Z,.48
2023-02-19T00:08:30.130Z,.48
2023-02-19T00:09:01.502Z,.32
2023-02-19T00:09:34.255Z,.32
2023-02-19T00:10:05.942Z,.16
2023-02-19T00:10:37.540Z,0
2023-02-19T00:11:09.860Z,0
2023-02-19T00:11:34.779Z,0
2023-02-19T00:11:57.500Z,0
2023-02-19T00:12:30.089Z,0
2023-02-19T00:13:01.793Z,0
2023-02-19T00:13:33.438Z,0
2023-02-19T00:14:05.449Z,0
2023-02-19T00:14:37.524Z,.16
2023-02-19T00:15:10.435Z,.16
2023-02-19T00:15:34.836Z,0
2023-02-19T00:15:58.734Z,0
2023-02-19T00:16:30.054Z,0
2023-02-19T00:17:01.546Z,0
2023-02-19T00:17:33.461Z,0
2023-02-19T00:18:05.474Z,0
2023-02-19T00:18:37.498Z,0
2023-02-19T00:19:10.454Z,0
2023-02-19T00:19:34.786Z,0
2023-02-19T00:19:58.014Z,0
2023-02-19T00:20:30.410Z,0
2023-02-19T00:21:01.472Z,0
2023-02-19T00:21:33.438Z,0
2023-02-19T00:22:05.467Z,0
2023-02-19T00:22:37.493Z,0
2023-02-19T00:23:09.501Z,0
2023-02-19T00:23:34.809Z,0
2023-02-19T00:23:57.507Z,0
2023-02-19T00:24:30.076Z,0
2023-02-19T00:25:03.330Z,0
2023-02-19T00:25:34.386Z,0
2023-02-19T00:26:16.197Z,.16
2023-02-19T00:26:37.561Z,0
2023-02-19T00:27:09.498Z,0
2023-02-19T00:27:34.805Z,0
2023-02-19T00:27:57.810Z,0
2023-02-19T00:28:30.059Z,0
2023-02-19T00:29:01.435Z,0
2023-02-19T00:29:33.439Z,0
2023-02-19T00:30:07.707Z,.16
2023-02-19T00:30:37.466Z,0
2023-02-19T00:31:09.906Z,.16
2023-02-19T00:31:35.270Z,.32
2023-02-19T00:31:58.504Z,.32
2023-02-19T00:32:29.982Z,.16
2023-02-19T00:33:03.076Z,0
2023-02-19T00:33:33.557Z,.16
2023-02-19T00:34:05.565Z,.32
2023-02-19T00:34:37.595Z,.16
2023-02-19T00:35:10.738Z,.16
2023-02-19T00:35:34.801Z,0
2023-02-19T00:35:57.730Z,0
2023-02-19T00:36:29.996Z,0
2023-02-19T00:37:01.461Z,0
2023-02-19T00:37:33.849Z,0
2023-02-19T00:38:05.558Z,0
2023-02-19T00:38:37.474Z,0
2023-02-19T00:39:09.935Z,0
2023-02-19T00:39:35.896Z,.16
2023-02-19T00:39:57.517Z,.16
2023-02-19T00:40:30.355Z,.32
2023-02-19T00:41:01.467Z,.16
2023-02-19T00:41:34.351Z,.16
2023-02-19T00:42:05.495Z,.16
2023-02-19T00:42:37.517Z,.32
2023-02-19T00:43:09.805Z,.32
2023-02-19T00:43:34.802Z,.32
2023-02-19T00:43:57.623Z,.32
2023-02-19T00:44:30.017Z,.32
2023-02-19T00:45:03.620Z,.48
2023-02-19T00:45:33.470Z,.48
2023-02-19T00:46:07.170Z,.88
2023-02-19T00:46:34.837Z,1.12
2023-02-19T00:46:53.585Z,1.28
2023-02-19T00:47:25.464Z,1.28
2023-02-19T00:47:42.596Z,1.28
2023-02-19T00:48:13.454Z,1.61
2023-02-19T00:48:35.493Z,1.61
2023-02-19T00:49:01.478Z,1.61
2023-02-19T00:49:33.459Z,1.61
2023-02-19T00:50:05.767Z,1.28
2023-02-19T00:50:37.547Z,1.28
2023-02-19T00:51:10.495Z,1.28
2023-02-19T00:51:34.819Z,1.28
2023-02-19T00:51:57.485Z,1.12
2023-02-19T00:52:29.959Z,1.28
2023-02-19T00:53:01.438Z,1.28
2023-02-19T00:53:38.838Z,2.01
2023-02-19T00:54:05.469Z,2.01
2023-02-19T00:54:38.041Z,2.73
2023-02-19T00:55:09.817Z,2.73
2023-02-19T00:55:34.824Z,2.33
2023-02-19T00:55:57.757Z,1.77
2023-02-19T00:56:29.998Z,1.61
2023-02-19T00:57:01.459Z,1.61
2023-02-19T00:57:34.181Z,1.28
2023-02-19T00:58:05.483Z,1.28
2023-02-19T00:58:37.445Z,1.28
2023-02-19T00:59:09.579Z,1.45
2023-02-19T00:59:34.827Z,1.45
2023-02-19T00:59:57.483Z,1.93
2023-02-19T01:00:30.728Z,1.93
2023-02-19T01:01:01.634Z,2.33
2023-02-19T01:01:33.507Z,2.89
2023-02-19T01:02:05.482Z,2.89
2023-02-19T01:02:37.519Z,2.33
2023-02-19T01:03:09.478Z,1.93
2023-02-19T01:03:34.781Z,1.45
2023-02-19T01:03:58.311Z,1.61
2023-02-19T01:04:30.095Z,1.28
2023-02-19T01:05:03.273Z,1.28
2023-02-19T01:05:33.472Z,1.61
2023-02-19T01:06:05.490Z,1.93
2023-02-19T01:06:37.524Z,1.77
2023-02-19T01:07:10.331Z,1.77
2023-02-19T01:07:35.313Z,1.77
2023-02-19T01:07:57.513Z,1.44
2023-02-19T01:08:29.992Z,1.28
2023-02-19T01:09:01.441Z,1.12
2023-02-19T01:09:34.179Z,.88
2023-02-19T01:10:05.996Z,.48
2023-02-19T01:10:37.459Z,.16
2023-02-19T01:11:10.006Z,0
2023-02-19T01:11:34.803Z,0
2023-02-19T01:11:57.576Z,0
2023-02-19T01:12:30.065Z,0
2023-02-19T01:13:01.486Z,0
2023-02-19T01:13:34.239Z,0
2023-02-19T01:14:05.488Z,0
2023-02-19T01:14:37.513Z,.16
2023-02-19T01:15:10.109Z,0
2023-02-19T01:15:34.815Z,0
2023-02-19T01:15:57.811Z,0
2023-02-19T01:16:30.156Z,0
2023-02-19T01:17:01.429Z,0
2023-02-19T01:17:33.438Z,0
2023-02-19T01:18:05.478Z,0
2023-02-19T01:18:34.776Z,0
2023-02-19T01:18:53.508Z,0
2023-02-19T01:19:25.448Z,.16
2023-02-19T01:19:42.600Z,.32
2023-02-19T01:20:14.557Z,.32
2023-02-19T01:20:35.283Z,.32
2023-02-19T01:21:01.458Z,.16
2023-02-19T01:21:33.449Z,.32
2023-02-19T01:22:05.490Z,.32
2023-02-19T01:22:37.493Z,.32
2023-02-19T01:23:10.268Z,.32
2023-02-19T01:23:34.785Z,.32
2023-02-19T01:23:57.472Z,.32
2023-02-19T01:24:29.986Z,.32
2023-02-19T01:25:03.358Z,.32
2023-02-19T01:25:33.409Z,.32
2023-02-19T01:26:05.488Z,.32
2023-02-19T01:26:37.443Z,.48
2023-02-19T01:27:09.477Z,.48
2023-02-19T01:27:34.796Z,.48
2023-02-19T01:27:58.155Z,.32
2023-02-19T01:28:30.071Z,.32
2023-02-19T01:29:01.456Z,.16
2023-02-19T01:29:34.255Z,.16
2023-02-19T01:30:07.634Z,.32
2023-02-19T01:30:37.509Z,.32
2023-02-19T01:31:09.978Z,.48
2023-02-19T01:31:34.892Z,.48
2023-02-19T01:31:57.581Z,.48
2023-02-19T01:32:30.078Z,.64
2023-02-19T01:33:02.840Z,.64
2023-02-19T01:33:33.427Z,.64
2023-02-19T01:34:05.456Z,.88
2023-02-19T01:34:35.283Z,.64
2023-02-19T01:34:53.477Z,.64
2023-02-19T01:35:25.725Z,.64
2023-02-19T01:35:42.626Z,.64
2023-02-19T01:36:13.710Z,.64
2023-02-19T01:36:35.305Z,.64
2023-02-19T01:37:01.399Z,.64
2023-02-19T01:37:33.426Z,.64
2023-02-19T01:38:05.472Z,.88
2023-02-19T01:38:37.456Z,.88
2023-02-19T01:39:10.094Z,1.12
2023-02-19T01:39:34.788Z,1.12
2023-02-19T01:39:57.454Z,1.12
2023-02-19T01:40:30.729Z,.88
2023-02-19T01:41:01.468Z,.88
2023-02-19T01:41:33.430Z,.88
2023-02-19T01:42:05.481Z,.64
2023-02-19T01:42:37.563Z,.64
2023-02-19T01:43:09.490Z,.48
2023-02-19T01:43:34.793Z,.32
2023-02-19T01:43:57.506Z,.32
2023-02-19T01:44:30.020Z,.48
2023-02-19T01:45:03.490Z,.32
2023-02-19T01:45:34.464Z,.32
2023-02-19T01:46:07.018Z,.32
2023-02-19T01:46:38.167Z,.32
2023-02-19T01:47:09.517Z,.48
2023-02-19T01:47:34.783Z,.48
2023-02-19T01:47:57.466Z,.48
2023-02-19T01:48:30.031Z,.48
2023-02-19T01:49:01.457Z,.32
2023-02-19T01:49:33.445Z,.32
2023-02-19T01:50:06.102Z,.32
2023-02-19T01:50:37.459Z,.32
2023-02-19T01:51:10.185Z,.32
2023-02-19T01:51:35.405Z,.32
2023-02-19T01:51:58.291Z,.32
2023-02-19T01:52:29.996Z,.32
2023-02-19T01:53:01.458Z,.32
2023-02-19T01:53:39.360Z,.32
2023-02-19T01:54:05.489Z,.32
2023-02-19T01:54:37.483Z,.32
2023-02-19T01:55:10.555Z,.32
2023-02-19T01:55:34.792Z,.32
2023-02-19T01:55:57.739Z,.32
2023-02-19T01:56:30.019Z,.32
2023-02-19T01:57:01.722Z,.32
2023-02-19T01:57:33.514Z,.32
2023-02-19T01:58:05.458Z,.32
2023-02-19T01:58:37.411Z,.32
2023-02-19T01:59:09.463Z,.32
2023-02-19T01:59:34.805Z,.32
2023-02-19T01:59:57.481Z,.32
2023-02-19T02:00:30.676Z,.32
2023-02-19T02:01:01.547Z,.32
2023-02-19T02:01:34.297Z,.32
2023-02-19T02:02:05.551Z,.32
2023-02-19T02:02:37.457Z,.32
2023-02-19T02:03:09.493Z,.32
2023-02-19T02:03:35.589Z,.32
2023-02-19T02:03:58.145Z,.32
2023-02-19T02:04:29.950Z,.32
2023-02-19T02:05:03.373Z,.32
2023-02-19T02:05:33.472Z,.32
2023-02-19T02:06:05.481Z,.32
2023-02-19T02:06:37.470Z,.32
2023-02-19T02:07:09.467Z,.32
2023-02-19T02:07:34.807Z,.32
2023-02-19T02:07:58.452Z,.32
2023-02-19T02:08:30.107Z,.32
2023-02-19T02:09:01.412Z,.48
2023-02-19T02:09:33.485Z,.48
2023-02-19T02:10:05.974Z,.48
2023-02-19T02:10:37.458Z,.48
2023-02-19T02:11:10.564Z,.48
2023-02-19T02:11:34.774Z,.64
2023-02-19T02:11:57.475Z,.48
2023-02-19T02:12:30.027Z,.64
2023-02-19T02:13:01.499Z,.64
2023-02-19T02:13:33.445Z,.88
2023-02-19T02:14:05.479Z,.88
2023-02-19T02:14:34.783Z,.88
2023-02-19T02:14:53.520Z,.88
2023-02-19T02:15:26.026Z,.88
2023-02-19T02:15:42.575Z,.88
2023-02-19T02:16:13.515Z,.48
2023-02-19T02:16:35.308Z,.48
2023-02-19T02:17:01.440Z,.88
2023-02-19T02:17:34.660Z,1.12
2023-02-19T02:18:05.473Z,1.12
2023-02-19T02:18:37.476Z,1.12
2023-02-19T02:19:09.504Z,1.12
2023-02-19T02:19:34.780Z,.72
2023-02-19T02:19:57.496Z,1.12
2023-02-19T02:20:30.785Z,1.12
2023-02-19T02:21:01.447Z,1.12
2023-02-19T02:21:33.461Z,1.12
2023-02-19T02:22:05.423Z,.88
2023-02-19T02:22:37.420Z,.88
2023-02-19T02:23:09.457Z,.64
2023-02-19T02:23:35.378Z,.64
2023-02-19T02:23:58.244Z,.64
2023-02-19T02:24:30.093Z,.64
2023-02-19T02:25:03.352Z,1.04
2023-02-19T02:25:33.491Z,1.04
2023-02-19T02:26:05.475Z,1.04
2023-02-19T02:26:37.443Z,1.61
2023-02-19T02:27:10.452Z,1.04
2023-02-19T02:27:34.816Z,.64
2023-02-19T02:27:57.457Z,.64
2023-02-19T02:28:30.002Z,.64
2023-02-19T02:29:01.412Z,.64
2023-02-19T02:29:34.098Z,.64
2023-02-19T02:30:07.789Z,.64
2023-02-19T02:30:37.449Z,.48
2023-02-19T02:31:10.056Z,.32
2023-02-19T02:31:34.891Z,.32
2023-02-19T02:31:57.572Z,.32
2023-02-19T02:32:29.999Z,.32
2023-02-19T02:33:02.910Z,.32
2023-02-19T02:33:34.318Z,.32
2023-02-19T02:34:05.498Z,.32
2023-02-19T02:34:37.444Z,.32
2023-02-19T02:35:09.827Z,.32
2023-02-19T02:35:35.449Z,.32
2023-02-19T02:35:57.694Z,.32
2023-02-19T02:36:30.047Z,.32
2023-02-19T02:37:01.432Z,.48
2023-02-19T02:37:33.622Z,.88
2023-02-19T02:38:05.448Z,1.12
2023-02-19T02:38:37.813Z,1.12
2023-02-19T02:39:09.846Z,1.12
2023-02-19T02:39:34.784Z,1.12
2023-02-19T02:39:58.779Z,1.12
2023-02-19T02:40:30.350Z,1.28
2023-02-19T02:41:01.442Z,1.28
2023-02-19T02:41:33.486Z,1.28
2023-02-19T02:42:05.485Z,1.12
2023-02-19T02:42:37.468Z,1.12
2023-02-19T02:43:10.330Z,1.28
2023-02-19T02:43:34.813Z,1.28
2023-02-19T02:43:57.463Z,1.28
2023-02-19T02:44:30.086Z,1.28
2023-02-19T02:45:03.806Z,1.12
2023-02-19T02:45:33.705Z,1.28
2023-02-19T02:46:07.086Z,1.44
2023-02-19T02:46:34.782Z,1.44
2023-02-19T02:46:53.481Z,1.28
2023-02-19T02:47:25.385Z,1.12
2023-02-19T02:47:42.644Z,1.12
2023-02-19T02:48:13.464Z,1.12
2023-02-19T02:48:35.333Z,1.12
2023-02-19T02:49:01.755Z,1.12
2023-02-19T02:49:34.260Z,1.12
2023-02-19T02:50:06.166Z,.88
2023-02-19T02:50:37.789Z,.48
2023-02-19T02:51:09.857Z,.32
2023-02-19T02:51:34.813Z,.48
2023-02-19T02:51:57.450Z,.32
2023-02-19T02:52:29.925Z,.32
2023-02-19T02:53:01.434Z,.32
2023-02-19T02:53:33.597Z,.32
2023-02-19T02:54:05.447Z,.32
2023-02-19T02:54:34.800Z,.32
2023-02-19T02:54:53.519Z,.32
2023-02-19T02:55:25.924Z,.32
2023-02-19T02:55:42.562Z,.32
2023-02-19T02:56:13.461Z,.32
2023-02-19T02:56:35.320Z,.32
2023-02-19T02:57:01.443Z,.32
2023-02-19T02:57:33.435Z,.32
2023-02-19T02:58:05.419Z,.32
2023-02-19T02:58:37.451Z,.32
2023-02-19T02:59:10.894Z,.32
2023-02-19T02:59:35.175Z,.32
2023-02-19T02:59:57.422Z,.32
2023-02-19T03:00:30.542Z,.32
2023-02-19T03:01:01.397Z,.32
2023-02-19T03:01:33.456Z,.32
2023-02-19T03:02:05.538Z,.32
2023-02-19T03:02:37.445Z,.32
2023-02-19T03:03:09.451Z,.32
2023-02-19T03:03:34.782Z,.32
2023-02-19T03:03:57.446Z,.32
2023-02-19T03:04:29.948Z,.32
2023-02-19T03:05:03.428Z,.32
2023-02-19T03:05:34.150Z,.32
2023-02-19T03:06:05.452Z,.32
2023-02-19T03:06:37.412Z,.32
2023-02-19T03:07:09.556Z,.32
2023-02-19T03:07:35.201Z,.32
2023-02-19T03:07:57.424Z,.32
2023-02-19T03:08:29.937Z,.32
2023-02-19T03:09:01.426Z,.32
2023-02-19T03:09:33.443Z,.32
2023-02-19T03:10:05.757Z,.32
2023-02-19T03:10:37.453Z,.32
2023-02-19T03:11:09.752Z,.32
2023-02-19T03:11:34.771Z,.32
2023-02-19T03:11:58.366Z,.32
2023-02-19T03:12:30.052Z,.32
2023-02-19T03:13:01.412Z,.32
2023-02-19T03:13:33.456Z,.32
2023-02-19T03:14:05.445Z,.32
2023-02-19T03:14:37.458Z,.48
2023-02-19T03:15:10.696Z,.88
2023-02-19T03:15:34.791Z,1.28
2023-02-19T03:15:57.689Z,1.28
2023-02-19T03:16:29.962Z,1.61
2023-02-19T03:17:01.522Z,2.49
2023-02-19T03:17:33.705Z,2.65
2023-02-19T03:18:05.467Z,2.65
2023-02-19T03:18:35.175Z,2.65
2023-02-19T03:18:53.503Z,2.65
2023-02-19T03:19:25.413Z,2.65
2023-02-19T03:19:42.558Z,2.65
2023-02-19T03:20:14.696Z,3.38
2023-02-19T03:20:35.481Z,3.38
2023-02-19T03:21:01.451Z,2.82
2023-02-19T03:21:34.844Z,2.09
2023-02-19T03:22:05.493Z,2.09
2023-02-19T03:22:37.459Z,2.09
2023-02-19T03:23:09.523Z,2.09
2023-02-19T03:23:35.005Z,2.09
2023-02-19T03:23:57.431Z,3.05
2023-02-19T03:24:29.947Z,3.05
2023-02-19T03:25:03.123Z,2.82
2023-02-19T03:25:33.815Z,2.09
2023-02-19T03:26:05.483Z,2.09
2023-02-19T03:26:34.808Z,2.09
2023-02-19T03:26:53.514Z,2.82
2023-02-19T03:27:25.469Z,2.82
2023-02-19T03:27:42.599Z,1.93
2023-02-19T03:28:13.451Z,2.49
2023-02-19T03:28:35.258Z,2.49
2023-02-19T03:29:01.426Z,3.22
2023-02-19T03:29:33.464Z,2.49
2023-02-19T03:30:07.533Z,3.22
2023-02-19T03:30:37.859Z,3.22
2023-02-19T03:31:11.292Z,3.22
2023-02-19T03:31:35.001Z,3.22
2023-02-19T03:31:58.030Z,3.54
2023-02-19T03:32:29.996Z,3.54
2023-02-19T03:33:02.791Z,3.22
2023-02-19T03:33:33.929Z,3.22
2023-02-19T03:34:05.449Z,2.49
2023-02-19T03:34:37.440Z,2.09
2023-02-19T03:35:09.773Z,2.09
2023-02-19T03:35:34.765Z,2.09
2023-02-19T03:35:58.511Z,2.09
2023-02-19T03:36:29.961Z,2.09
2023-02-19T03:37:01.455Z,2.09
2023-02-19T03:37:34.298Z,2.09
2023-02-19T03:38:05.469Z,2.09
2023-02-19T03:38:37.424Z,1.77
2023-02-19T03:39:09.538Z,1.44
2023-02-19T03:39:34.787Z,1.44
2023-02-19T03:39:57.461Z,1.28
2023-02-19T03:40:30.273Z,1.12
2023-02-19T03:41:01.693Z,1.28
2023-02-19T03:41:33.437Z,1.28
2023-02-19T03:42:05.456Z,1.12
2023-02-19T03:42:37.421Z,1.12
2023-02-19T03:43:09.451Z,1.12
2023-02-19T03:43:34.792Z,1.12
2023-02-19T03:43:58.808Z,1.28
2023-02-19T03:44:29.991Z,1.12
2023-02-19T03:45:03.715Z,1.12
2023-02-19T03:45:33.544Z,1.12
2023-02-19T03:46:07.064Z,.72
2023-02-19T03:46:37.443Z,.72
2023-02-19T03:47:10.284Z,.72
2023-02-19T03:47:34.773Z,.72
2023-02-19T03:47:57.403Z,.32
2023-02-19T03:48:29.943Z,.32
2023-02-19T03:49:01.434Z,.32
2023-02-19T03:49:33.426Z,.72
2023-02-19T03:50:05.752Z,1.28
2023-02-19T03:50:37.586Z,1.28
2023-02-19T03:51:09.852Z,1.28
2023-02-19T03:51:35.583Z,.72
2023-02-19T03:51:57.457Z,.88
2023-02-19T03:52:29.978Z,.88
2023-02-19T03:53:01.459Z,.88
2023-02-19T03:53:33.794Z,.88
2023-02-19T03:54:05.528Z,.32
2023-02-19T03:54:37.469Z,.32
2023-02-19T03:55:10.618Z,.32
2023-02-19T03:55:34.784Z,.32
2023-02-19T03:55:57.661Z,.32
2023-02-19T03:56:29.889Z,.32
2023-02-19T03:57:02.231Z,.32
2023-02-19T03:57:33.448Z,.32
2023-02-19T03:58:05.432Z,.32
2023-02-19T03:58:35.101Z,.32
2023-02-19T03:58:53.430Z,.32
2023-02-19T03:59:25.483Z,.32
2023-02-19T03:59:42.620Z,.32
2023-02-19T04:00:16.617Z,.48
2023-02-19T04:00:35.335Z,.32
2023-02-19T04:01:01.433Z,.48
2023-02-19T04:01:33.497Z,.48
2023-02-19T04:02:05.470Z,.32
2023-02-19T04:02:37.410Z,.32
2023-02-19T04:03:09.466Z,.32
2023-02-19T04:03:34.778Z,.32
2023-02-19T04:03:57.400Z,.48
2023-02-19T04:04:29.946Z,.48
2023-02-19T04:05:03.395Z,.48
2023-02-19T04:05:33.531Z,.48
2023-02-19T04:06:05.429Z,.88
2023-02-19T04:06:38.235Z,.64
2023-02-19T04:07:09.467Z,.88
2023-02-19T04:07:34.992Z,1.12
2023-02-19T04:07:57.473Z,1.12
2023-02-19T04:08:29.923Z,1.28
2023-02-19T04:09:01.422Z,1.28
2023-02-19T04:09:34.012Z,1.44
2023-02-19T04:10:05.743Z,1.61
2023-02-19T04:10:37.431Z,1.61
2023-02-19T04:11:09.899Z,1.61
2023-02-19T04:11:34.750Z,1.44
2023-02-19T04:11:57.398Z,1.61
2023-02-19T04:12:29.922Z,1.61
2023-02-19T04:13:02.211Z,1.77
2023-02-19T04:13:33.430Z,1.77
2023-02-19T04:14:05.468Z,1.61
2023-02-19T04:14:34.791Z,1.61
2023-02-19T04:14:53.499Z,1.77
2023-02-19T04:15:25.943Z,1.61
2023-02-19T04:15:42.600Z,1.44
2023-02-19T04:16:14.227Z,1.44
2023-02-19T04:16:35.612Z,1.44
2023-02-19T04:17:01.383Z,1.44
2023-02-19T04:17:33.508Z,1.28
2023-02-19T04:18:05.482Z,1.28
2023-02-19T04:18:37.474Z,1.28
2023-02-19T04:19:09.449Z,1.12
2023-02-19T04:19:34.781Z,.88
2023-02-19T04:19:57.413Z,1.12
2023-02-19T04:20:30.250Z,.88
2023-02-19T04:21:01.409Z,.48
2023-02-19T04:21:33.456Z,.32
2023-02-19T04:22:05.429Z,.32
2023-02-19T04:22:37.752Z,.32
2023-02-19T04:23:09.435Z,.32
2023-02-19T04:23:34.777Z,.32
2023-02-19T04:23:57.451Z,.32
2023-02-19T04:24:29.943Z,.32
2023-02-19T04:25:03.180Z,.32
2023-02-19T04:25:33.442Z,.48
2023-02-19T04:26:05.451Z,.48
2023-02-19T04:26:37.458Z,.48
2023-02-19T04:27:09.471Z,.32
2023-02-19T04:27:35.564Z,.32
2023-02-19T04:27:57.401Z,.32
2023-02-19T04:28:29.911Z,.32
2023-02-19T04:29:02.140Z,.32
2023-02-19T04:29:33.435Z,.32
2023-02-19T04:30:07.720Z,.32
2023-02-19T04:30:35.792Z,.32
2023-02-19T04:30:53.841Z,.32
2023-02-19T04:31:25.542Z,.72
2023-02-19T04:31:42.621Z,.88
2023-02-19T04:32:14.256Z,.48
2023-02-19T04:32:35.310Z,.32
2023-02-19T04:33:03.086Z,.48
2023-02-19T04:33:33.482Z,.88
2023-02-19T04:34:05.403Z,.48
2023-02-19T04:34:37.438Z,.48
2023-02-19T04:35:09.809Z,.48
2023-02-19T04:35:34.765Z,.88
2023-02-19T04:35:57.611Z,.88
2023-02-19T04:36:29.970Z,1.12
2023-02-19T04:37:01.381Z,1.12
2023-02-19T04:37:33.432Z,1.45
2023-02-19T04:38:05.426Z,1.12
2023-02-19T04:38:38.149Z,1.12
2023-02-19T04:39:09.922Z,1.12
2023-02-19T04:39:34.726Z,1.12
2023-02-19T04:39:57.419Z,1.12
2023-02-19T04:40:30.219Z,.88
2023-02-19T04:41:01.388Z,.64
2023-02-19T04:41:33.505Z,.64
2023-02-19T04:42:05.453Z,.64
2023-02-19T04:42:37.375Z,.88
2023-02-19T04:43:09.473Z,.64
2023-02-19T04:43:34.727Z,.64
2023-02-19T04:43:57.427Z,.88
2023-02-19T04:44:29.466Z,1.12
2023-02-19T04:45:03.831Z,.88
2023-02-19T04:45:33.495Z,.88
2023-02-19T04:46:07.232Z,.64
2023-02-19T04:46:34.786Z,.64
2023-02-19T04:46:53.406Z,.64
2023-02-19T04:47:25.415Z,.64
2023-02-19T04:47:42.573Z,.64
2023-02-19T04:48:14.216Z,.88
2023-02-19T04:48:35.241Z,.64
2023-02-19T04:49:01.400Z,.64
2023-02-19T04:49:33.480Z,.64
2023-02-19T04:50:05.836Z,.64
2023-02-19T04:50:37.398Z,.64
2023-02-19T04:51:09.752Z,.64
2023-02-19T04:51:34.731Z,.64
2023-02-19T04:51:57.605Z,.48
2023-02-19T04:52:29.418Z,.64
2023-02-19T04:53:01.387Z,.48
2023-02-19T04:53:33.444Z,.48
2023-02-19T04:54:05.419Z,.48
2023-02-19T04:54:36.077Z,.64
2023-02-19T04:54:53.416Z,.48
2023-02-19T04:55:25.636Z,.64
2023-02-19T04:55:42.507Z,.32
2023-02-19T04:56:13.442Z,0
2023-02-19T04:56:35.452Z,0
2023-02-19T04:57:01.396Z,0
2023-02-19T04:57:33.868Z,0
2023-02-19T04:58:05.444Z,0
2023-02-19T04:58:37.439Z,0
2023-02-19T04:59:09.536Z,0
2023-02-19T04:59:34.792Z,0
2023-02-19T04:59:57.432Z,.16
2023-02-19T05:00:30.544Z,.16
2023-02-19T05:01:02.266Z,.32
2023-02-19T05:01:33.954Z,.48
2023-02-19T05:02:04.940Z,.48
2023-02-19T05:02:34.192Z,.48
2023-02-19T05:02:52.974Z,.48
2023-02-19T05:03:25.072Z,.32
2023-02-19T05:03:42.137Z,.32
2023-02-19T05:04:15.666Z,.32
2023-02-19T05:04:35.177Z,.32
2023-02-19T05:05:01.201Z,.32
2023-02-19T05:05:32.969Z,.32
2023-02-19T05:06:04.934Z,.48
2023-02-19T05:06:38.077Z,.48
2023-02-19T05:07:09.982Z,.48
2023-02-19T05:07:34.753Z,1.04
2023-02-19T05:07:57.494Z,.48
2023-02-19T05:08:29.402Z,1.04
2023-02-19T05:09:01.408Z,1.04
2023-02-19T05:09:33.379Z,1.04
2023-02-19T05:10:05.735Z,1.04
2023-02-19T05:10:38.414Z,.48
2023-02-19T05:11:09.945Z,.48
2023-02-19T05:11:34.968Z,.32
2023-02-19T05:11:57.435Z,.32
2023-02-19T05:12:29.463Z,.32
2023-02-19T05:13:01.449Z,.32
2023-02-19T05:13:33.466Z,.48
2023-02-19T05:14:05.528Z,.32
2023-02-19T05:14:37.903Z,.32
2023-02-19T05:15:10.016Z,.48
2023-02-19T05:15:34.803Z,.64
2023-02-19T05:15:57.794Z,.48
2023-02-19T05:16:29.436Z,.48
2023-02-19T05:17:02.394Z,.16
2023-02-19T05:17:33.428Z,0
2023-02-19T05:18:05.424Z,.16
2023-02-19T05:18:34.874Z,.16
2023-02-19T05:18:53.411Z,.48
2023-02-19T05:19:25.446Z,.64
2023-02-19T05:19:42.600Z,.64
2023-02-19T05:20:14.463Z,.64
2023-02-19T05:20:35.203Z,.88
2023-02-19T05:21:01.412Z,.88
2023-02-19T05:21:33.454Z,1.12
2023-02-19T05:22:05.497Z,1.28
2023-02-19T05:22:37.449Z,1.28
2023-02-19T05:23:09.418Z,1.28
2023-02-19T05:23:34.708Z,1.28
2023-02-19T05:23:57.449Z,1.28
2023-02-19T05:24:29.432Z,1.12
2023-02-19T05:25:03.434Z,.56
2023-02-19T05:25:33.399Z,1.28
2023-02-19T05:26:05.483Z,1.28
2023-02-19T05:26:38.169Z,1.44
2023-02-19T05:27:09.450Z,1.44
2023-02-19T05:27:35.470Z,1.28
2023-02-19T05:27:57.956Z,.72
2023-02-19T05:28:29.447Z,.72
2023-02-19T05:29:01.418Z,.16
2023-02-19T05:29:33.396Z,.72
2023-02-19T05:30:07.658Z,1.28
2023-02-19T05:30:37.529Z,.72
2023-02-19T05:31:10.006Z,.72
2023-02-19T05:31:34.830Z,.32
2023-02-19T05:31:57.512Z,.16
2023-02-19T05:32:29.448Z,0
2023-02-19T05:33:03.286Z,0
2023-02-19T05:33:33.401Z,.16
2023-02-19T05:34:05.500Z,.16
2023-02-19T05:34:34.720Z,.32
2023-02-19T05:34:53.422Z,.32
2023-02-19T05:35:26.883Z,.32
2023-02-19T05:35:42.573Z,.32
2023-02-19T05:36:14.212Z,.32
2023-02-19T05:36:35.576Z,.32
2023-02-19T05:37:01.448Z,.32
2023-02-19T05:37:33.477Z,.32
2023-02-19T05:38:05.387Z,.16
2023-02-19T05:38:37.426Z,.16
2023-02-19T05:39:09.484Z,.16
2023-02-19T05:39:34.780Z,0
2023-02-19T05:39:57.432Z,0
2023-02-19T05:40:29.740Z,0
2023-02-19T05:41:01.417Z,0
2023-02-19T05:41:33.440Z,.16
2023-02-19T05:42:05.436Z,.16
2023-02-19T05:42:39.042Z,.32
2023-02-19T05:43:09.442Z,.16
2023-02-19T05:43:35.025Z,0
2023-02-19T05:43:57.488Z,0
2023-02-19T05:44:29.426Z,0
2023-02-19T05:45:03.677Z,0
2023-02-19T05:45:33.429Z,0
2023-02-19T05:46:07.206Z,0
2023-02-19T05:46:37.440Z,0
2023-02-19T05:47:09.418Z,0
2023-02-19T05:47:34.708Z,0
2023-02-19T05:47:57.483Z,0
2023-02-19T05:48:29.403Z,.16
2023-02-19T05:49:02.114Z,.16
2023-02-19T05:49:33.396Z,.32
2023-02-19T05:50:05.782Z,.32
2023-02-19T05:50:34.728Z,.32
2023-02-19T05:50:53.634Z,.32
2023-02-19T05:51:25.486Z,.32
2023-02-19T05:51:42.594Z,.32
2023-02-19T05:52:14.314Z,.32
2023-02-19T05:52:35.209Z,.32
2023-02-19T05:53:01.408Z,.32
2023-02-19T05:53:33.962Z,.32
2023-02-19T05:54:05.425Z,.32
2023-02-19T05:54:34.706Z,.32
2023-02-19T05:54:53.404Z,.32
2023-02-19T05:55:26.880Z,.32
2023-02-19T05:55:42.764Z,.32
2023-02-19T05:56:13.727Z,.32
2023-02-19T05:56:35.164Z,.32
2023-02-19T05:57:01.385Z,.32
2023-02-19T05:57:33.384Z,.32
2023-02-19T05:58:05.452Z,.32
2023-02-19T05:58:38.088Z,.16
2023-02-19T05:59:09.415Z,0
2023-02-19T05:59:34.714Z,0
2023-02-19T05:59:57.537Z,0
2023-02-19T06:00:30.023Z,0
2023-02-19T06:01:01.473Z,0
2023-02-19T06:01:33.826Z,0
2023-02-19T06:02:05.492Z,0
2023-02-19T06:02:37.468Z,0
2023-02-19T06:03:09.774Z,0
2023-02-19T06:03:34.811Z,.16
2023-02-19T06:03:57.917Z,.32
2023-02-19T06:04:29.398Z,.32
2023-02-19T06:05:03.323Z,.16
2023-02-19T06:05:33.409Z,.16
2023-02-19T06:06:05.514Z,.16
2023-02-19T06:06:37.721Z,.16
2023-02-19T06:07:09.457Z,.16
2023-02-19T06:07:34.713Z,.32
2023-02-19T06:07:57.890Z,.32
2023-02-19T06:08:29.474Z,.48
2023-02-19T06:09:01.464Z,.48
2023-02-19T06:09:33.439Z,.48
2023-02-19T06:10:05.836Z,.64
2023-02-19T06:10:35.508Z,.64
2023-02-19T06:10:53.655Z,.48
2023-02-19T06:11:26.209Z,.48
2023-02-19T06:11:42.742Z,.48
2023-02-19T06:12:13.380Z,.64
2023-02-19T06:12:35.207Z,.64
2023-02-19T06:13:01.392Z,.64
2023-02-19T06:13:33.406Z,.64
2023-02-19T06:14:05.449Z,.88
2023-02-19T06:14:35.445Z,.88
2023-02-19T06:14:53.464Z,.88
2023-02-19T06:15:25.993Z,1.12
2023-02-19T06:15:42.685Z,1.12
2023-02-19T06:16:13.475Z,1.28
2023-02-19T06:16:35.189Z,1.44
2023-02-19T06:17:01.712Z,1.44
2023-02-19T06:17:33.430Z,1.44
2023-02-19T06:18:05.499Z,1.44
2023-02-19T06:18:37.412Z,1.61
2023-02-19T06:19:09.505Z,1.61
2023-02-19T06:19:35.193Z,1.44
2023-02-19T06:19:57.604Z,1.61
2023-02-19T06:20:29.745Z,1.61
2023-02-19T06:21:02.142Z,1.77
2023-02-19T06:21:33.420Z,1.61
2023-02-19T06:22:05.409Z,1.44
2023-02-19T06:22:34.725Z,1.28
2023-02-19T06:22:53.367Z,.72
2023-02-19T06:23:25.462Z,.32
2023-02-19T06:23:42.617Z,.32
2023-02-19T06:24:14.129Z,.32
2023-02-19T06:24:35.203Z,.16
2023-02-19T06:25:03.299Z,.16
2023-02-19T06:25:33.489Z,0
2023-02-19T06:26:05.474Z,0
2023-02-19T06:26:34.696Z,0
2023-02-19T06:26:53.391Z,0
2023-02-19T06:27:26.990Z,0
2023-02-19T06:27:57.585Z,0
2023-02-19T06:28:29.405Z,0
2023-02-19T06:29:01.420Z,0
2023-02-19T06:29:33.541Z,0
2023-02-19T06:30:07.569Z,0
2023-02-19T06:30:35.591Z,0
2023-02-19T06:30:54.079Z,0
2023-02-19T06:31:25.629Z,0
2023-02-19T06:31:42.865Z,0
2023-02-19T06:32:13.652Z,0
2023-02-19T06:32:35.375Z,0
2023-02-19T06:33:03.120Z,0
2023-02-19T06:33:33.584Z,0
2023-02-19T06:34:05.596Z,.16
2023-02-19T06:34:34.828Z,.16
2023-02-19T06:34:53.546Z,.32
2023-02-19T06:35:25.783Z,.32
2023-02-19T06:35:42.758Z,.32
2023-02-19T06:36:13.538Z,.32
2023-02-19T06:36:36.753Z,.32
2023-02-19T06:37:02.263Z,.32
2023-02-19T06:37:33.552Z,.32
2023-02-19T06:38:05.495Z,.32
2023-02-19T06:38:34.834Z,.32
2023-02-19T06:38:53.516Z,.48
2023-02-19T06:39:25.598Z,.48
2023-02-19T06:39:42.881Z,.64
2023-02-19T06:40:15.429Z,.48
2023-02-19T06:40:35.395Z,.88
2023-02-19T06:41:01.594Z,1.12